Time;durP1;ratioP1;P1;durP2;ratioP2;P2;SDS_P1;SDS_P2;PMS_P1;PMS_P2;Temp;Humidity;BMP_temperature;BMP_pressure;BME280_temperature;BME280_humidity;BME280_pressure;Samples;Min_cycle;Max_cycle;Signal;HPM_P1;HPM_P2
2023/10/24 00:01:15;;;;;;;1.90;0.50;;;19.90;90.00;;;;;;6162383;22;45106;-65
2023/10/24 00:04:12;;;;;;;2.85;0.95;;;19.90;89.20;;;;;;6198830;22;45203;-64
2023/10/24 00:09:23;;;;;;;1.15;0.60;;;19.90;89.10;;;;;;6204093;22;45116;-64
2023/10/24 00:11:51;;;;;;;0.70;0.65;;;19.90;89.10;;;;;;6219042;22;45190;-65
2023/10/24 00:14:29;;;;;;;0.75;0.60;;;19.90;89.10;;;;;;6223206;22;45190;-65
2023/10/24 00:17:09;;;;;;;0.63;0.43;;;19.90;89.20;;;;;;6226375;22;47363;-65
2023/10/24 00:19:54;;;;;;;0.88;0.43;;;19.90;89.10;;;;;;6171650;22;45086;-64
2023/10/24 00:22:21;;;;;;;0.73;0.40;;;19.90;89.10;;;;;;6191697;22;45382;-65
2023/10/24 00:25:20;;;;;;;0.63;0.55;;;19.90;89.10;;;;;;6191687;22;45268;-64
2023/10/24 00:27:53;;;;;;;1.42;0.77;;;19.90;88.90;;;;;;6182677;22;47793;-65
2023/10/24 00:30:21;;;;;;;1.73;0.50;;;19.90;88.90;;;;;;6200235;22;45209;-65
2023/10/24 00:33:00;;;;;;;0.73;0.35;;;20.00;89.00;;;;;;6218186;22;45097;-65
2023/10/24 00:35:47;;;;;;;0.70;0.50;;;20.00;89.00;;;;;;6200503;22;45064;-65
2023/10/24 00:38:23;;;;;;;1.40;0.65;;;20.00;89.10;;;;;;6221910;22;47192;-65
2023/10/24 00:40:51;;;;;;;0.75;0.40;;;20.00;88.90;;;;;;6230765;22;45158;-65
2023/10/24 00:43:18;;;;;;;0.88;0.43;;;19.90;88.90;;;;;;6234006;22;45307;-66
2023/10/24 00:45:50;;;;;;;0.95;0.60;;;20.00;89.20;;;;;;6255618;22;45174;-65
2023/10/24 00:48:16;;;;;;;1.48;0.70;;;19.90;88.80;;;;;;6281920;22;46308;-65
2023/10/24 00:50:53;;;;;;;1.92;0.80;;;19.90;88.50;;;;;;6267687;22;45352;-65
2023/10/24 00:53:40;;;;;;;2.63;0.60;;;19.90;87.30;;;;;;6274809;22;45278;-64
2023/10/24 00:56:23;;;;;;;2.15;0.70;;;19.90;86.20;;;;;;6266606;22;45199;-64
2023/10/24 00:59:24;;;;;;;1.98;0.68;;;19.90;86.10;;;;;;6269094;22;47349;-65
2023/10/24 01:02:12;;;;;;;1.23;0.70;;;19.90;84.70;;;;;;6258898;22;45126;-64
2023/10/24 01:05:00;;;;;;;1.55;0.80;;;19.90;85.90;;;;;;6218112;22;45148;-64
2023/10/24 01:07:58;;;;;;;1.77;0.90;;;19.90;86.30;;;;;;6205759;22;45310;-65
2023/10/24 01:10:30;;;;;;;3.58;1.00;;;19.90;86.70;;;;;;6080211;22;46333;-63
2023/10/24 01:13:42;;;;;;;1.58;0.70;;;19.90;87.00;;;;;;6034131;22;45266;-62
2023/10/24 01:16:43;;;;;;;1.40;0.80;;;19.90;87.10;;;;;;6054881;22;45116;-63
2023/10/24 01:19:42;;;;;;;0.93;0.60;;;19.90;86.70;;;;;;6114835;22;45212;-63
2023/10/24 01:22:11;;;;;;;0.82;0.70;;;19.90;87.10;;;;;;6164158;22;46279;-64
2023/10/24 01:25:12;;;;;;;1.90;0.80;;;19.90;87.10;;;;;;6220435;22;45206;-64
2023/10/24 01:28:06;;;;;;;1.13;0.70;;;19.90;87.00;;;;;;6262476;22;45075;-63
2023/10/24 01:30:54;;;;;;;4.25;0.93;;;19.90;87.30;;;;;;6294091;22;44998;-63
2023/10/24 01:33:21;;;;;;;1.20;0.70;;;19.90;87.30;;;;;;6299126;22;46031;-63
2023/10/24 01:36:11;;;;;;;1.83;0.85;;;19.90;87.50;;;;;;6306465;22;45075;-63
2023/10/24 01:39:23;;;;;;;5.00;0.73;;;19.90;87.20;;;;;;6307809;22;44983;-63
2023/10/24 01:42:02;;;;;;;2.85;0.90;;;19.90;87.50;;;;;;6309302;22;45240;-63
2023/10/24 01:44:28;;;;;;;0.63;0.52;;;20.00;87.20;;;;;;6309455;22;47244;-63
2023/10/24 01:47:31;;;;;;;1.40;0.57;;;19.90;87.40;;;;;;6309213;22;44975;-63
2023/10/24 01:49:58;;;;;;;1.63;0.80;;;20.00;87.70;;;;;;6308336;22;45170;-63
2023/10/24 01:52:48;;;;;;;1.90;0.80;;;19.90;87.40;;;;;;6307374;22;44991;-63
2023/10/24 01:55:29;;;;;;;2.17;0.60;;;19.90;87.50;;;;;;6307589;22;46509;-63
2023/10/24 01:58:26;;;;;;;0.63;0.52;;;19.90;87.50;;;;;;6253416;22;45180;-63
2023/10/24 02:03:33;;;;;;;0.82;0.45;;;19.90;87.20;;;;;;6321078;22;45044;-63
2023/10/24 02:06:26;;;;;;;3.15;0.68;;;19.90;87.50;;;;;;6338021;22;46606;-63
2023/10/24 02:11:48;;;;;;;2.22;0.50;;;19.90;87.50;;;;;;6326278;22;45027;-64
2023/10/24 02:14:15;;;;;;;0.47;0.38;;;19.90;87.50;;;;;;6325509;22;45313;-65
2023/10/24 02:17:13;;;;;;;1.08;0.50;;;19.90;87.50;;;;;;6323404;22;46164;-63
2023/10/24 02:19:40;;;;;;;1.58;0.52;;;20.00;87.30;;;;;;6328701;22;45236;-64
2023/10/24 02:22:18;;;;;;;1.05;0.57;;;19.90;87.30;;;;;;6331779;22;45108;-64
2023/10/24 02:24:45;;;;;;;0.60;0.40;;;20.00;87.30;;;;;;6324422;22;45229;-63
2023/10/24 02:27:13;;;;;;;0.93;0.30;;;19.90;87.20;;;;;;6315932;22;46530;-65
2023/10/24 02:30:16;;;;;;;1.17;0.60;;;20.00;87.30;;;;;;6314751;22;45045;-64
2023/10/24 02:33:09;;;;;;;2.03;0.50;;;20.00;87.20;;;;;;6322380;22;45140;-64
2023/10/24 02:35:47;;;;;;;1.00;0.50;;;20.00;87.20;;;;;;6329831;22;45061;-63
2023/10/24 02:38:14;;;;;;;1.25;0.50;;;20.00;87.30;;;;;;6322505;22;46183;-65
2023/10/24 02:40:45;;;;;;;0.40;0.30;;;20.00;87.10;;;;;;6317698;22;45163;-64
2023/10/24 02:43:37;;;;;;;1.58;0.38;;;20.00;87.00;;;;;;6318305;22;45160;-64
2023/10/24 02:46:13;;;;;;;1.17;0.50;;;20.00;87.30;;;;;;6323330;22;45240;-65
2023/10/24 02:48:43;;;;;;;0.45;0.40;;;19.90;87.20;;;;;;6315577;22;46018;-64
2023/10/24 02:51:28;;;;;;;0.55;0.40;;;20.00;87.30;;;;;;6329894;22;45105;-63
2023/10/24 02:54:03;;;;;;;1.20;0.30;;;19.90;87.00;;;;;;6327777;22;45012;-63
2023/10/24 02:56:55;;;;;;;0.47;0.20;;;20.00;87.30;;;;;;6327702;22;45286;-64
2023/10/24 02:59:23;;;;;;;1.50;0.38;;;20.00;87.30;;;;;;6327150;22;47399;-64
2023/10/24 03:01:51;;;;;;;1.00;0.45;;;19.90;87.10;;;;;;6332240;22;45074;-64
2023/10/24 03:04:30;;;;;;;1.17;0.57;;;20.00;87.10;;;;;;6329652;22;45118;-65
2023/10/24 03:07:40;;;;;;;2.60;0.40;;;20.00;87.00;;;;;;6298065;22;45203;-64
2023/10/24 03:10:08;;;;;;;1.05;0.60;;;19.90;86.90;;;;;;6325411;22;46506;-64
2023/10/24 03:13:04;;;;;;;0.38;0.38;;;19.90;87.20;;;;;;6332020;22;45133;-64
2023/10/24 03:15:41;;;;;;;0.30;0.30;;;19.90;87.30;;;;;;6318678;22;45152;-65
2023/10/24 03:18:30;;;;;;;0.35;0.28;;;20.00;87.40;;;;;;6329818;22;45338;-64
2023/10/24 03:21:12;;;;;;;0.45;0.40;;;20.00;87.30;;;;;;6329764;22;46043;-63
2023/10/24 03:23:52;;;;;;;1.08;0.32;;;20.00;87.00;;;;;;6303717;22;45034;-64
2023/10/24 03:26:41;;;;;;;0.70;0.30;;;20.00;87.10;;;;;;6334922;22;45059;-65
2023/10/24 03:32:42;;;;;;;1.20;0.55;;;20.00;87.50;;;;;;6327558;22;45149;-65
2023/10/24 03:35:21;;;;;;;0.40;0.40;;;19.90;87.50;;;;;;6318793;22;45059;-64
2023/10/24 03:38:14;;;;;;;0.32;0.28;;;20.00;87.90;;;;;;6307144;22;45195;-66
2023/10/24 03:40:41;;;;;;;0.90;0.30;;;20.00;87.70;;;;;;6255812;22;45126;-65
2023/10/24 03:43:33;;;;;;;1.13;0.30;;;19.90;88.10;;;;;;6274892;22;46295;-65
2023/10/24 03:46:28;;;;;;;0.40;0.20;;;20.00;88.00;;;;;;6313644;22;45129;-64
2023/10/24 03:49:16;;;;;;;0.30;0.30;;;20.00;87.10;;;;;;6304917;22;45072;-64
2023/10/24 03:52:06;;;;;;;0.30;0.30;;;20.00;86.30;;;;;;6300076;22;45169;-65
2023/10/24 03:54:43;;;;;;;1.05;0.50;;;19.90;84.50;;;;;;6306210;22;46305;-65
2023/10/24 03:57:22;;;;;;;0.20;0.20;;;19.90;83.50;;;;;;6293563;22;45215;-66
2023/10/24 04:00:12;;;;;;;0.47;0.13;;;19.90;82.50;;;;;;6116119;22;45374;-63
2023/10/24 04:08:52;;;;;;;0.25;0.25;;;19.80;81.00;;;;;;6022921;22;46108;-61
2023/10/24 04:11:39;;;;;;;0.30;0.28;;;19.80;80.50;;;;;;6084134;22;45119;-62
2023/10/24 04:14:06;;;;;;;0.98;0.30;;;19.80;80.10;;;;;;6078219;22;45131;-62
2023/10/24 04:16:46;;;;;;;2.92;0.30;;;19.80;80.00;;;;;;6055677;22;46458;-62
2023/10/24 04:19:13;;;;;;;0.13;0.13;;;19.70;80.30;;;;;;6052688;22;45136;-63
2023/10/24 04:21:54;;;;;;;0.45;0.30;;;19.70;81.30;;;;;;6076924;22;45240;-61
2023/10/24 04:24:22;;;;;;;0.82;0.32;;;19.80;82.20;;;;;;6070793;22;45083;-61
2023/10/24 04:27:15;;;;;;;0.65;0.35;;;19.70;82.60;;;;;;6108444;22;47771;-61
2023/10/24 04:30:06;;;;;;;0.35;0.28;;;19.80;83.10;;;;;;6033937;22;45348;-62
2023/10/24 04:32:55;;;;;;;0.82;0.43;;;19.80;83.40;;;;;;6062886;22;45282;-63
2023/10/24 04:36:00;;;;;;;0.93;0.30;;;19.80;83.60;;;;;;6019218;22;45467;-62
2023/10/24 04:38:36;;;;;;;0.52;0.32;;;19.80;83.60;;;;;;6057477;22;47226;-63
2023/10/24 04:41:11;;;;;;;0.98;0.30;;;19.80;83.80;;;;;;6115226;22;45220;-63
2023/10/24 04:43:42;;;;;;;0.47;0.20;;;19.80;83.30;;;;;;6176166;22;45199;-64
2023/10/24 04:46:09;;;;;;;1.20;0.28;;;19.80;83.90;;;;;;6164651;22;45169;-63
2023/10/24 04:48:37;;;;;;;0.43;0.25;;;19.80;84.20;;;;;;6179147;22;45167;-64
2023/10/24 04:51:20;;;;;;;0.20;0.20;;;19.80;84.20;;;;;;6187979;22;45126;-64
2023/10/24 04:54:31;;;;;;;0.43;0.20;;;19.80;84.30;;;;;;6228736;22;45092;-63
2023/10/24 04:57:09;;;;;;;0.25;0.20;;;19.80;84.50;;;;;;6132033;22;45273;-62
2023/10/24 04:59:48;;;;;;;0.40;0.28;;;19.80;84.20;;;;;;6069953;22;46261;-62
2023/10/24 05:02:45;;;;;;;0.28;0.20;;;19.80;84.10;;;;;;6065400;22;45246;-62
2023/10/24 05:05:12;;;;;;;0.50;0.20;;;19.80;84.20;;;;;;6154812;22;45173;-64
2023/10/24 05:07:39;;;;;;;0.80;0.30;;;19.80;84.20;;;;;;6079869;22;45211;-61
2023/10/24 05:10:24;;;;;;;0.75;0.30;;;19.80;84.00;;;;;;6090292;22;46321;-62
2023/10/24 05:16:59;;;;;;;0.47;0.30;;;19.80;83.80;;;;;;6072410;22;45246;-63
2023/10/24 05:20:03;;;;;;;1.07;0.30;;;19.80;83.30;;;;;;6227719;22;45126;-62
2023/10/24 05:22:40;;;;;;;1.60;0.22;;;19.80;83.60;;;;;;6264989;22;45102;-63
2023/10/24 05:25:27;;;;;;;1.27;0.30;;;19.80;83.40;;;;;;6214509;22;45060;-62
2023/10/24 05:27:54;;;;;;;23.95;2.50;;;19.80;83.60;;;;;;6185221;22;45126;-60
2023/10/24 05:30:37;;;;;;;7.95;0.70;;;19.80;84.60;;;;;;6334315;22;45221;-61
2023/10/24 05:33:06;;;;;;;1.95;0.60;;;19.80;83.60;;;;;;6332462;22;46257;-61
2023/10/24 05:35:33;;;;;;;1.50;0.43;;;19.80;83.60;;;;;;6305226;22;45219;-64
2023/10/24 05:38:09;;;;;;;0.43;0.30;;;19.80;83.40;;;;;;6219245;22;45279;-64
2023/10/24 05:40:56;;;;;;;0.68;0.30;;;19.80;83.30;;;;;;6144829;22;45216;-64
2023/10/24 05:43:23;;;;;;;0.40;0.30;;;19.80;83.10;;;;;;6096106;22;47401;-65
2023/10/24 05:46:08;;;;;;;0.30;0.30;;;19.80;83.10;;;;;;6086188;22;45295;-64
2023/10/24 05:48:50;;;;;;;0.95;0.20;;;19.80;83.00;;;;;;6069967;22;45094;-65
2023/10/24 05:51:33;;;;;;;0.43;0.22;;;19.80;83.00;;;;;;6077637;22;45276;-64
2023/10/24 05:54:05;;;;;;;1.17;0.20;;;19.80;83.00;;;;;;6106565;22;45746;-64
2023/10/24 05:56:33;;;;;;;1.40;0.30;;;19.80;82.90;;;;;;6065738;22;45848;-64
2023/10/24 05:59:21;;;;;;;0.70;0.25;;;19.80;83.00;;;;;;6090274;22;45230;-64
2023/10/24 06:01:59;;;;;;;1.50;0.30;;;19.80;82.90;;;;;;6070283;22;45370;-64
2023/10/24 06:04:57;;;;;;;0.90;0.25;;;19.80;82.80;;;;;;6089191;22;46356;-65
2023/10/24 06:07:24;;;;;;;0.30;0.30;;;19.80;82.90;;;;;;6082428;22;45211;-64
2023/10/24 06:10:07;;;;;;;1.20;0.40;;;19.80;82.90;;;;;;6083566;22;45297;-65
2023/10/24 06:12:34;;;;;;;0.45;0.45;;;19.80;82.80;;;;;;6053839;22;45200;-64
2023/10/24 06:15:15;;;;;;;0.25;0.20;;;19.80;82.80;;;;;;6054902;22;46037;-64
2023/10/24 06:18:15;;;;;;;0.60;0.20;;;19.90;83.00;;;;;;6074259;22;45109;-64
2023/10/24 06:24:17;;;;;;;0.20;0.20;;;19.90;82.60;;;;;;6026837;22;45084;-65
2023/10/24 06:27:10;;;;;;;0.95;0.20;;;19.90;82.80;;;;;;6089147;22;45762;-64
2023/10/24 06:32:18;;;;;;;0.90;0.40;;;19.90;82.40;;;;;;6049161;22;45287;-64
2023/10/24 06:34:57;;;;;;;0.57;0.20;;;19.90;82.70;;;;;;6108055;22;45263;-64
2023/10/24 06:37:24;;;;;;;0.17;0.17;;;19.90;82.70;;;;;;6099559;22;46283;-64
2023/10/24 06:43:12;;;;;;;1.25;0.40;;;19.90;82.40;;;;;;6052362;22;45302;-65
2023/10/24 06:45:52;;;;;;;0.77;0.40;;;19.90;82.60;;;;;;6085933;22;45043;-64
2023/10/24 06:48:27;;;;;;;0.25;0.13;;;19.90;82.30;;;;;;6085091;22;46379;-64
2023/10/24 06:51:11;;;;;;;0.20;0.20;;;19.90;82.40;;;;;;6071155;22;45249;-64
2023/10/24 06:53:41;;;;;;;0.38;0.28;;;19.90;82.50;;;;;;6070486;22;45333;-64
2023/10/24 06:56:17;;;;;;;0.30;0.30;;;19.90;82.40;;;;;;6085433;22;45078;-65
2023/10/24 06:58:44;;;;;;;1.20;0.22;;;19.90;83.30;;;;;;6080774;22;46445;-65
2023/10/24 07:01:27;;;;;;;0.10;0.10;;;19.90;82.50;;;;;;6067893;22;45233;-64
2023/10/24 07:03:55;;;;;;;0.47;0.30;;;19.90;82.40;;;;;;6072182;22;45249;-65
2023/10/24 07:09:55;;;;;;;0.10;0.10;;;19.90;82.30;;;;;;6038066;22;45146;-64
2023/10/24 07:12:49;;;;;;;1.65;0.10;;;19.90;82.20;;;;;;6093209;22;45373;-64
2023/10/24 07:15:17;;;;;;;0.38;0.22;;;19.90;81.90;;;;;;6077907;22;45288;-65
2023/10/24 07:17:44;;;;;;;0.28;0.20;;;19.90;82.20;;;;;;6089860;22;45502;-65
2023/10/24 07:20:22;;;;;;;0.38;0.30;;;19.90;82.20;;;;;;6064974;22;46273;-64
2023/10/24 07:23:11;;;;;;;0.30;0.28;;;19.90;82.10;;;;;;6083761;22;45338;-64
2023/10/24 07:25:38;;;;;;;0.10;0.10;;;19.90;81.90;;;;;;6106749;22;45169;-65
2023/10/24 07:28:05;;;;;;;0.10;0.10;;;19.90;81.90;;;;;;6070121;22;45309;-64
2023/10/24 07:31:11;;;;;;;0.17;0.10;;;19.90;81.90;;;;;;6072968;22;47411;-64
2023/10/24 07:33:37;;;;;;;0.88;0.20;;;19.90;81.70;;;;;;6066453;22;45320;-65
2023/10/24 07:36:09;;;;;;;0.93;0.20;;;19.90;81.90;;;;;;6081003;22;45509;-64
2023/10/24 07:39:02;;;;;;;0.50;0.28;;;19.90;81.70;;;;;;6094941;22;45256;-64
2023/10/24 07:41:56;;;;;;;0.25;0.25;;;19.90;81.70;;;;;;6096427;22;45346;-64
2023/10/24 07:44:48;;;;;;;0.20;0.20;;;19.90;81.70;;;;;;6091229;22;45116;-64
2023/10/24 07:47:25;;;;;;;0.25;0.20;;;19.90;81.50;;;;;;6071283;22;45293;-64
2023/10/24 07:50:06;;;;;;;1.73;0.20;;;19.90;81.70;;;;;;6057421;22;45346;-65
2023/10/24 07:53:08;;;;;;;0.20;0.20;;;19.90;81.50;;;;;;6065716;22;46404;-64
2023/10/24 07:55:38;;;;;;;0.17;0.10;;;19.90;81.50;;;;;;6097454;22;45154;-65
2023/10/24 07:58:26;;;;;;;1.45;0.20;;;19.90;81.60;;;;;;6084636;22;45329;-64
2023/10/24 08:01:12;;;;;;;1.45;0.00;;;19.90;81.40;;;;;;6091833;22;45222;-65
2023/10/24 08:03:51;;;;;;;0.30;0.20;;;19.90;81.40;;;;;;6080633;22;47249;-64
2023/10/24 08:06:43;;;;;;;0.20;0.10;;;19.90;81.20;;;;;;6069128;22;45192;-64
2023/10/24 08:09:32;;;;;;;0.22;0.15;;;19.90;81.20;;;;;;6086940;22;45233;-65
2023/10/24 08:12:11;;;;;;;1.20;0.20;;;19.90;81.30;;;;;;6094942;22;45098;-64
2023/10/24 08:15:03;;;;;;;0.20;0.20;;;19.90;81.30;;;;;;6086805;22;46160;-64
2023/10/24 08:17:59;;;;;;;0.57;0.20;;;19.90;81.10;;;;;;6100253;22;45293;-64
2023/10/24 08:20:46;;;;;;;0.20;0.20;;;19.90;81.10;;;;;;6060743;22;45329;-65
2023/10/24 08:26:31;;;;;;;0.10;0.10;;;19.90;81.20;;;;;;6048193;22;45862;-65
2023/10/24 08:28:58;;;;;;;1.73;0.20;;;19.90;81.20;;;;;;6075120;22;45249;-65
2023/10/24 08:31:26;;;;;;;0.40;0.30;;;19.90;80.80;;;;;;6093215;22;45296;-64
2023/10/24 08:33:55;;;;;;;1.27;0.30;;;19.90;80.90;;;;;;6079158;22;45651;-64
2023/10/24 08:37:43;;;;;;;2.00;0.28;;;19.90;80.90;;;;;;6071291;22;46237;-65
2023/10/24 08:40:24;;;;;;;1.42;0.22;;;19.90;81.00;;;;;;6080689;22;45368;-64
2023/10/24 08:43:12;;;;;;;0.77;0.25;;;19.90;81.00;;;;;;6055162;22;45163;-64
2023/10/24 08:45:40;;;;;;;0.10;0.10;;;19.90;80.60;;;;;;6067268;22;45120;-65
2023/10/24 08:48:09;;;;;;;0.38;0.20;;;19.90;79.20;;;;;;6119949;22;46400;-65
2023/10/24 08:53:37;;;;;;;0.13;0.13;;;19.90;78.20;;;;;;6097304;22;45396;-65
2023/10/24 08:57:01;;;;;;;1.13;0.32;;;19.80;77.00;;;;;;6093023;22;45368;-65
2023/10/24 09:00:00;;;;;;;0.25;0.10;;;19.80;77.80;;;;;;6090774;22;46273;-64
2023/10/24 09:02:53;;;;;;;0.30;0.20;;;19.80;78.20;;;;;;6203155;22;45238;-63
2023/10/24 09:05:46;;;;;;;0.30;0.20;;;19.90;78.80;;;;;;6330723;22;45147;-62
2023/10/24 09:08:58;;;;;;;0.35;0.20;;;19.90;79.20;;;;;;6277495;22;45190;-63
2023/10/24 09:11:26;;;;;;;0.20;0.10;;;19.90;79.30;;;;;;6276660;22;47191;-64
2023/10/24 09:14:30;;;;;;;0.63;0.22;;;19.90;79.60;;;;;;6202254;22;45110;-64
2023/10/24 09:17:22;;;;;;;0.63;0.30;;;19.90;79.60;;;;;;6146169;22;45322;-64
2023/10/24 09:19:53;;;;;;;0.25;0.10;;;19.90;79.80;;;;;;6100700;22;45419;-65
2023/10/24 09:22:36;;;;;;;1.48;0.30;;;19.90;79.80;;;;;;6081103;22;46208;-65
2023/10/24 09:25:25;;;;;;;0.25;0.20;;;19.90;79.50;;;;;;6069553;22;45512;-65
2023/10/24 09:28:16;;;;;;;0.28;0.20;;;19.90;79.70;;;;;;6087852;22;45276;-66
2023/10/24 09:31:11;;;;;;;0.55;0.30;;;19.90;79.70;;;;;;6096046;22;45236;-67
2023/10/24 09:34:00;;;;;;;0.20;0.20;;;19.90;80.00;;;;;;6096695;22;47413;-66
2023/10/24 09:36:39;;;;;;;0.65;0.30;;;19.90;80.00;;;;;;6103502;22;45162;-66
2023/10/24 09:39:06;;;;;;;0.30;0.20;;;19.90;80.10;;;;;;6065299;22;45207;-66
2023/10/24 09:41:34;;;;;;;0.57;0.20;;;19.90;80.10;;;;;;6066423;22;45272;-67
2023/10/24 09:47:14;;;;;;;0.68;0.30;;;19.90;80.30;;;;;;6072106;22;45191;-66
2023/10/24 09:50:09;;;;;;;1.50;0.40;;;19.90;80.10;;;;;;6084434;22;45464;-66
2023/10/24 09:53:05;;;;;;;0.38;0.20;;;19.90;80.60;;;;;;6111236;22;45271;-67
2023/10/24 09:55:56;;;;;;;0.30;0.30;;;19.90;80.30;;;;;;6104912;22;45731;-66
2023/10/24 09:58:41;;;;;;;0.22;0.15;;;19.90;80.50;;;;;;6076705;22;45334;-67
2023/10/24 10:04:17;;;;;;;0.13;0.10;;;19.90;80.60;;;;;;6050171;22;45315;-67
2023/10/24 10:06:46;;;;;;;0.40;0.30;;;19.90;80.70;;;;;;6084380;22;45451;-67
2023/10/24 10:09:54;;;;;;;0.95;0.22;;;19.90;80.60;;;;;;6111214;22;45137;-66
2023/10/24 10:12:35;;;;;;;0.55;0.25;;;19.90;80.80;;;;;;6091609;22;45325;-66
2023/10/24 10:16:10;;;;;;;0.40;0.30;;;19.90;80.70;;;;;;6082853;22;45059;-66
2023/10/24 10:23:08;;;;;;;0.90;0.30;;;20.00;80.80;;;;;;6065102;22;45252;-66
2023/10/24 10:26:40;;;;;;;0.80;0.20;;;19.90;80.70;;;;;;6079228;22;45217;-67
2023/10/24 10:29:42;;;;;;;0.20;0.20;;;20.00;80.80;;;;;;6058043;22;45280;-66
2023/10/24 10:32:52;;;;;;;0.57;0.35;;;20.00;81.00;;;;;;6106086;22;46227;-66
2023/10/24 10:35:51;;;;;;;0.20;0.20;;;20.00;81.00;;;;;;6081427;22;45258;-66
2023/10/24 10:38:25;;;;;;;0.55;0.30;;;20.00;80.90;;;;;;6085344;22;45115;-67
2023/10/24 10:41:17;;;;;;;0.25;0.20;;;20.00;81.10;;;;;;6071697;22;45180;-66
2023/10/24 10:44:34;;;;;;;0.17;0.17;;;20.00;80.90;;;;;;6090965;22;45372;-66
2023/10/24 10:47:27;;;;;;;0.82;0.30;;;20.00;81.00;;;;;;6103751;22;45106;-65
2023/10/24 10:50:12;;;;;;;0.38;0.20;;;20.00;81.00;;;;;;6057202;22;45167;-65
2023/10/24 10:53:49;;;;;;;0.43;0.10;;;20.00;81.00;;;;;;6062664;22;45214;-66
2023/10/24 10:56:20;;;;;;;0.20;0.20;;;20.00;80.90;;;;;;6190927;22;46642;-62
2023/10/24 10:59:48;;;;;;;0.10;0.10;;;20.00;80.90;;;;;;6286159;22;45190;-65
2023/10/24 11:03:06;;;;;;;0.63;0.40;;;20.00;81.00;;;;;;6134587;22;45298;-64
2023/10/24 11:06:16;;;;;;;0.47;0.32;;;20.10;81.00;;;;;;6193224;22;45112;-62
2023/10/24 11:09:09;;;;;;;0.77;0.22;;;20.10;80.90;;;;;;6306631;22;45098;-65
2023/10/24 11:11:37;;;;;;;0.75;0.35;;;20.10;80.90;;;;;;6185433;22;45129;-64
2023/10/24 11:14:56;;;;;;;0.20;0.20;;;20.10;80.80;;;;;;6168878;22;45119;-66
2023/10/24 11:18:10;;;;;;;0.85;0.30;;;20.10;80.90;;;;;;6194157;22;45255;-66
2023/10/24 11:20:38;;;;;;;0.32;0.30;;;20.10;81.00;;;;;;6172465;22;47226;-66
2023/10/24 11:23:27;;;;;;;0.30;0.30;;;20.10;81.10;;;;;;6097848;22;45459;-66
2023/10/24 11:26:15;;;;;;;0.20;0.20;;;20.10;81.00;;;;;;6096125;22;45269;-67
2023/10/24 11:29:02;;;;;;;0.35;0.20;;;20.00;81.00;;;;;;6097840;22;45252;-67
2023/10/24 11:31:34;;;;;;;0.52;0.40;;;20.10;81.30;;;;;;6091617;22;47263;-67
2023/10/24 11:34:29;;;;;;;0.40;0.30;;;20.10;81.40;;;;;;6108970;22;45143;-66
2023/10/24 11:36:57;;;;;;;0.73;0.30;;;20.10;81.50;;;;;;6060251;22;45145;-66
2023/10/24 11:40:04;;;;;;;0.75;0.25;;;20.10;81.60;;;;;;6088219;22;45246;-66
2023/10/24 11:42:52;;;;;;;0.65;0.43;;;20.00;81.50;;;;;;6109056;22;45364;-65
2023/10/24 11:45:21;;;;;;;0.30;0.30;;;20.10;81.70;;;;;;6106111;22;45212;-66
2023/10/24 11:47:58;;;;;;;0.28;0.20;;;20.00;81.80;;;;;;6084497;22;45184;-66
2023/10/24 11:50:45;;;;;;;0.30;0.28;;;20.10;82.20;;;;;;6061313;22;45235;-66
2023/10/24 11:53:34;;;;;;;0.60;0.20;;;20.10;83.20;;;;;;6094461;22;47376;-66
2023/10/24 11:56:20;;;;;;;0.20;0.20;;;20.00;82.20;;;;;;6072315;22;45424;-65
2023/10/24 11:58:46;;;;;;;0.40;0.30;;;20.10;82.40;;;;;;6087280;22;45216;-66
2023/10/24 12:01:31;;;;;;;0.30;0.20;;;20.10;82.60;;;;;;6087656;22;45172;-66
2023/10/24 12:04:11;;;;;;;0.28;0.17;;;20.00;82.70;;;;;;6129355;22;46530;-64
2023/10/24 12:07:04;;;;;;;0.30;0.30;;;20.00;82.90;;;;;;6113232;22;46514;-64
2023/10/24 12:09:42;;;;;;;0.60;0.30;;;20.00;83.00;;;;;;6089287;22;45259;-65
2023/10/24 12:12:37;;;;;;;0.90;0.40;;;20.00;83.10;;;;;;6043338;22;45357;-65
2023/10/24 12:15:04;;;;;;;1.63;0.20;;;20.10;83.40;;;;;;6096056;22;45243;-66
2023/10/24 12:17:47;;;;;;;0.68;0.40;;;20.00;83.50;;;;;;6063724;22;45166;-66
2023/10/24 12:20:28;;;;;;;0.25;0.25;;;20.00;83.50;;;;;;6087466;22;45361;-66
2023/10/24 12:23:18;;;;;;;1.45;0.30;;;20.10;83.50;;;;;;6075098;22;45344;-66
2023/10/24 12:26:04;;;;;;;1.55;0.30;;;20.00;83.50;;;;;;6076127;22;46158;-66
2023/10/24 12:29:00;;;;;;;0.50;0.20;;;20.00;83.60;;;;;;6046948;22;45229;-67
2023/10/24 12:31:28;;;;;;;0.75;0.30;;;20.10;83.80;;;;;;6076845;22;45291;-66
2023/10/24 12:34:28;;;;;;;0.35;0.20;;;20.00;83.80;;;;;;6100503;22;45124;-67
2023/10/24 12:37:02;;;;;;;0.38;0.28;;;20.10;83.90;;;;;;6106741;22;45862;-66
2023/10/24 12:39:34;;;;;;;0.55;0.32;;;20.00;83.90;;;;;;6073749;22;45378;-66
2023/10/24 12:44:58;;;;;;;0.40;0.20;;;20.00;84.20;;;;;;6075941;22;45260;-66
2023/10/24 12:47:57;;;;;;;1.23;0.20;;;20.10;84.40;;;;;;6100639;22;45986;-66
2023/10/24 12:50:35;;;;;;;0.20;0.20;;;20.00;84.60;;;;;;6056280;22;45182;-66
2023/10/24 12:53:02;;;;;;;0.85;0.43;;;20.00;84.70;;;;;;6102403;22;45338;-66
2023/10/24 12:55:29;;;;;;;0.28;0.28;;;20.00;84.40;;;;;;6072909;22;45320;-66
2023/10/24 12:57:56;;;;;;;0.47;0.20;;;20.00;84.40;;;;;;6083206;22;46332;-67
2023/10/24 13:04:05;;;;;;;0.28;0.20;;;20.00;84.70;;;;;;6061018;22;45065;-66
2023/10/24 13:06:56;;;;;;;0.28;0.20;;;20.00;85.20;;;;;;6057942;22;45380;-66
2023/10/24 13:12:48;;;;;;;0.20;0.20;;;20.00;85.20;;;;;;6014814;22;45980;-66
2023/10/24 13:15:17;;;;;;;0.32;0.32;;;20.00;85.40;;;;;;6064195;22;45134;-66
2023/10/24 13:17:43;;;;;;;0.15;0.15;;;20.00;85.40;;;;;;6050018;22;45225;-66
2023/10/24 13:20:44;;;;;;;0.65;0.30;;;20.00;85.40;;;;;;6064525;22;48101;-67
2023/10/24 13:23:30;;;;;;;0.50;0.20;;;20.00;85.40;;;;;;6027523;22;46359;-65
2023/10/24 13:28:51;;;;;;;1.10;0.20;;;20.00;85.20;;;;;;6041072;22;45450;-65
2023/10/24 13:31:41;;;;;;;1.40;0.30;;;20.00;85.90;;;;;;6164475;22;46162;-63
2023/10/24 13:34:13;;;;;;;0.43;0.15;;;20.00;85.80;;;;;;6269897;22;45098;-64
2023/10/24 13:37:18;;;;;;;0.10;0.10;;;20.00;86.00;;;;;;6125964;22;45200;-65
2023/10/24 13:40:01;;;;;;;0.45;0.30;;;20.00;86.10;;;;;;6040972;22;45373;-66
2023/10/24 13:45:26;;;;;;;0.25;0.15;;;20.00;85.90;;;;;;6042123;22;45168;-66
2023/10/24 13:51:35;;;;;;;0.63;0.20;;;20.00;86.40;;;;;;5998583;22;45311;-66
2023/10/24 13:54:05;;;;;;;0.40;0.25;;;20.00;86.40;;;;;;6082182;22;46428;-66
2023/10/24 13:56:33;;;;;;;0.20;0.20;;;20.00;86.60;;;;;;6051800;22;45311;-66
2023/10/24 13:59:00;;;;;;;0.22;0.17;;;20.00;86.80;;;;;;6077244;22;45205;-66
2023/10/24 14:01:28;;;;;;;0.25;0.17;;;20.00;86.60;;;;;;6076761;22;45114;-66
2023/10/24 14:04:25;;;;;;;0.55;0.25;;;20.00;86.60;;;;;;6095099;22;45376;-66
2023/10/24 14:09:47;;;;;;;0.47;0.22;;;20.00;86.40;;;;;;6093746;22;45106;-66
2023/10/24 14:12:14;;;;;;;0.20;0.10;;;20.00;86.50;;;;;;6100561;22;45117;-66
2023/10/24 14:14:50;;;;;;;0.50;0.20;;;20.00;86.60;;;;;;6075989;22;47279;-66
2023/10/24 14:20:02;;;;;;;0.20;0.20;;;20.00;86.60;;;;;;6055999;22;45455;-66
2023/10/24 14:22:55;;;;;;;0.20;0.20;;;20.00;87.60;;;;;;6072919;22;44814;-66
2023/10/24 14:25:29;;;;;;;0.60;0.20;;;20.00;86.60;;;;;;6074832;22;46391;-66
2023/10/24 14:28:24;;;;;;;0.20;0.20;;;20.00;86.50;;;;;;6064232;22;45211;-66
2023/10/24 14:30:50;;;;;;;0.57;0.30;;;20.00;86.30;;;;;;6090278;22;45077;-66
2023/10/24 14:33:18;;;;;;;1.95;0.40;;;20.00;86.40;;;;;;6106572;22;45357;-61
2023/10/24 14:35:58;;;;;;;4.32;0.57;;;20.00;87.70;;;;;;6104899;22;46597;-64
2023/10/24 14:38:36;;;;;;;6.85;0.70;;;20.10;89.70;;;;;;6091011;22;44982;-62
2023/10/24 14:41:34;;;;;;;6.90;0.70;;;20.10;91.80;;;;;;6136863;22;45143;-68
2023/10/24 14:44:20;;;;;;;5.22;0.70;;;20.10;92.00;;;;;;6085763;22;44853;-67
2023/10/24 14:47:19;;;;;;;5.10;0.40;;;20.00;91.00;;;;;;6102683;22;47227;-67
2023/10/24 14:49:45;;;;;;;4.32;0.80;;;20.00;91.30;;;;;;6122918;22;45078;-67
2023/10/24 14:52:31;;;;;;;2.38;0.52;;;19.90;91.40;;;;;;6121102;22;45193;-67
2023/10/24 14:54:57;;;;;;;1.13;0.43;;;19.90;91.50;;;;;;6098795;22;44823;-67
2023/10/24 14:57:35;;;;;;;1.90;0.47;;;19.80;91.80;;;;;;6114600;22;46469;-68
2023/10/24 15:00:39;;;;;;;0.50;0.20;;;19.80;92.00;;;;;;6092588;22;45231;-68
2023/10/24 15:03:33;;;;;;;0.85;0.40;;;19.80;91.80;;;;;;6118131;22;45311;-68
2023/10/24 15:06:27;;;;;;;0.30;0.30;;;19.80;90.80;;;;;;6107034;22;45007;-67
2023/10/24 15:09:06;;;;;;;1.98;0.50;;;19.80;90.20;;;;;;6106115;22;47498;-68
2023/10/24 15:11:55;;;;;;;2.70;0.30;;;19.80;90.10;;;;;;6095155;22;44854;-68
2023/10/24 15:14:47;;;;;;;1.48;0.40;;;19.70;90.20;;;;;;6133992;22;45207;-68
2023/10/24 15:17:26;;;;;;;0.15;0.10;;;19.70;90.90;;;;;;6109371;22;45058;-68
2023/10/24 15:19:53;;;;;;;0.85;0.30;;;19.70;91.40;;;;;;6090158;22;46205;-68
2023/10/24 15:22:20;;;;;;;0.80;0.30;;;19.70;91.70;;;;;;6085676;22;45229;-69
2023/10/24 15:24:47;;;;;;;0.93;0.30;;;19.70;91.90;;;;;;6089564;22;44882;-68